sensor_id;sensor_type;location;lat;lon;timestamp;temperature;humidity
48988;DHT22;34799;51.440;-2.534;2022-08-06T00:00:26;16.40;96.70
48988;DHT22;34799;51.440;-2.534;2022-08-06T00:02:53;16.40;96.80
48988;DHT22;34799;51.440;-2.534;2022-08-06T00:05:20;16.60;96.80
48988;DHT22;34799;51.440;-2.534;2022-08-06T00:07:47;16.30;96.80
48988;DHT22;34799;51.440;-2.534;2022-08-06T00:10:16;16.30;96.80
48988;DHT22;34799;51.440;-2.534;2022-08-06T00:12:45;17.50;97.10
48988;DHT22;34799;51.440;-2.534;2022-08-06T00:15:13;16.30;96.70
48988;DHT22;34799;51.440;-2.534;2022-08-06T00:17:41;16.30;96.80
48988;DHT22;34799;51.440;-2.534;2022-08-06T00:20:11;16.30;96.70
48988;DHT22;34799;51.440;-2.534;2022-08-06T00:22:38;16.30;96.80
48988;DHT22;34799;51.440;-2.534;2022-08-06T00:25:06;16.30;96.90
48988;DHT22;34799;51.440;-2.534;2022-08-06T00:27:34;16.30;97.00
48988;DHT22;34799;51.440;-2.534;2022-08-06T00:30:05;16.30;96.90
48988;DHT22;34799;51.440;-2.534;2022-08-06T00:32:32;16.30;96.90
48988;DHT22;34799;51.440;-2.534;2022-08-06T00:35:00;16.20;96.80
48988;DHT22;34799;51.440;-2.534;2022-08-06T00:37:27;16.20;96.80
48988;DHT22;34799;51.440;-2.534;2022-08-06T00:39:56;16.20;96.90
48988;DHT22;34799;51.440;-2.534;2022-08-06T00:42:24;16.20;97.10
48988;DHT22;34799;51.440;-2.534;2022-08-06T00:44:51;16.20;97.20
48988;DHT22;34799;51.440;-2.534;2022-08-06T00:47:19;16.20;97.20
48988;DHT22;34799;51.440;-2.534;2022-08-06T00:49:47;16.10;97.20
48988;DHT22;34799;51.440;-2.534;2022-08-06T00:52:15;16.10;97.30
48988;DHT22;34799;51.440;-2.534;2022-08-06T00:54:42;16.00;97.40
48988;DHT22;34799;51.440;-2.534;2022-08-06T00:57:09;16.00;97.50
48988;DHT22;34799;51.440;-2.534;2022-08-06T00:59:37;16.00;97.50
48988;DHT22;34799;51.440;-2.534;2022-08-06T01:02:05;15.90;97.50
48988;DHT22;34799;51.440;-2.534;2022-08-06T01:04:32;15.90;97.60
48988;DHT22;34799;51.440;-2.534;2022-08-06T01:06:59;15.90;97.50
48988;DHT22;34799;51.440;-2.534;2022-08-06T01:09:26;16.00;97.50
48988;DHT22;34799;51.440;-2.534;2022-08-06T01:11:54;15.90;97.60
48988;DHT22;34799;51.440;-2.534;2022-08-06T01:14:21;15.90;97.60
48988;DHT22;34799;51.440;-2.534;2022-08-06T01:16:58;15.90;97.70
48988;DHT22;34799;51.440;-2.534;2022-08-06T01:19:30;15.90;97.70
48988;DHT22;34799;51.440;-2.534;2022-08-06T01:25:23;15.90;97.80
48988;DHT22;34799;51.440;-2.534;2022-08-06T01:28:00;15.80;98.00
48988;DHT22;34799;51.440;-2.534;2022-08-06T01:30:32;15.80;98.00
48988;DHT22;34799;51.440;-2.534;2022-08-06T01:33:07;15.80;97.90
48988;DHT22;34799;51.440;-2.534;2022-08-06T01:35:39;15.80;97.70
48988;DHT22;34799;51.440;-2.534;2022-08-06T01:38:17;15.70;97.80
48988;DHT22;34799;51.440;-2.534;2022-08-06T01:40:49;15.70;97.70
48988;DHT22;34799;51.440;-2.534;2022-08-06T01:43:19;15.70;97.80
48988;DHT22;34799;51.440;-2.534;2022-08-06T01:45:51;15.70;97.80
48988;DHT22;34799;51.440;-2.534;2022-08-06T01:48:24;15.70;97.80
48988;DHT22;34799;51.440;-2.534;2022-08-06T01:50:55;15.60;97.80
48988;DHT22;34799;51.440;-2.534;2022-08-06T01:53:31;15.70;97.90
48988;DHT22;34799;51.440;-2.534;2022-08-06T01:56:02;15.60;98.00
48988;DHT22;34799;51.440;-2.534;2022-08-06T01:58:34;15.50;98.00
48988;DHT22;34799;51.440;-2.534;2022-08-06T02:01:07;15.60;98.40
48988;DHT22;34799;51.440;-2.534;2022-08-06T02:03:39;15.40;98.40
48988;DHT22;34799;51.440;-2.534;2022-08-06T02:06:11;15.40;98.50
48988;DHT22;34799;51.440;-2.534;2022-08-06T02:08:40;15.30;98.50
48988;DHT22;34799;51.440;-2.534;2022-08-06T02:11:10;15.30;98.50
48988;DHT22;34799;51.440;-2.534;2022-08-06T02:13:39;15.30;98.70
48988;DHT22;34799;51.440;-2.534;2022-08-06T02:16:10;15.20;98.70
48988;DHT22;34799;51.440;-2.534;2022-08-06T02:18:42;15.20;98.80
48988;DHT22;34799;51.440;-2.534;2022-08-06T02:21:18;15.10;98.60
48988;DHT22;34799;51.440;-2.534;2022-08-06T02:23:48;15.10;98.60
48988;DHT22;34799;51.440;-2.534;2022-08-06T02:26:17;15.10;98.60
48988;DHT22;34799;51.440;-2.534;2022-08-06T02:28:47;15.00;98.60
48988;DHT22;34799;51.440;-2.534;2022-08-06T02:31:15;15.00;98.70
48988;DHT22;34799;51.440;-2.534;2022-08-06T02:33:42;14.90;98.70
48988;DHT22;34799;51.440;-2.534;2022-08-06T02:36:14;14.90;98.70
48988;DHT22;34799;51.440;-2.534;2022-08-06T02:39:03;14.90;98.80
48988;DHT22;34799;51.440;-2.534;2022-08-06T02:41:54;14.90;98.70
48988;DHT22;34799;51.440;-2.534;2022-08-06T02:44:42;14.90;98.60
48988;DHT22;34799;51.440;-2.534;2022-08-06T02:47:29;14.90;98.70
48988;DHT22;34799;51.440;-2.534;2022-08-06T02:49:59;14.90;98.70
48988;DHT22;34799;51.440;-2.534;2022-08-06T02:52:30;14.80;98.70
48988;DHT22;34799;51.440;-2.534;2022-08-06T02:55:05;14.80;98.70
48988;DHT22;34799;51.440;-2.534;2022-08-06T02:57:48;14.80;98.70
48988;DHT22;34799;51.440;-2.534;2022-08-06T03:00:16;14.80;98.70
48988;DHT22;34799;51.440;-2.534;2022-08-06T03:02:45;14.70;98.70
48988;DHT22;34799;51.440;-2.534;2022-08-06T03:05:16;14.70;98.60
48988;DHT22;34799;51.440;-2.534;2022-08-06T03:07:47;14.60;98.60
48988;DHT22;34799;51.440;-2.534;2022-08-06T03:10:18;14.60;98.60
48988;DHT22;34799;51.440;-2.534;2022-08-06T03:12:46;14.70;98.70
48988;DHT22;34799;51.440;-2.534;2022-08-06T03:15:17;14.60;98.60
48988;DHT22;34799;51.440;-2.534;2022-08-06T03:17:46;14.60;98.50
48988;DHT22;34799;51.440;-2.534;2022-08-06T03:20:19;14.50;98.50
48988;DHT22;34799;51.440;-2.534;2022-08-06T03:22:48;14.50;98.60
48988;DHT22;34799;51.440;-2.534;2022-08-06T03:25:18;14.50;98.60
48988;DHT22;34799;51.440;-2.534;2022-08-06T03:27:48;14.50;98.60
48988;DHT22;34799;51.440;-2.534;2022-08-06T03:30:18;14.80;98.90
48988;DHT22;34799;51.440;-2.534;2022-08-06T03:32:46;14.60;98.70
48988;DHT22;34799;51.440;-2.534;2022-08-06T03:35:14;14.50;98.70
48988;DHT22;34799;51.440;-2.534;2022-08-06T03:37:43;14.50;98.70
48988;DHT22;34799;51.440;-2.534;2022-08-06T03:40:11;14.50;98.90
48988;DHT22;34799;51.440;-2.534;2022-08-06T03:42:40;14.60;98.70
48988;DHT22;34799;51.440;-2.534;2022-08-06T03:45:09;14.40;98.80
48988;DHT22;34799;51.440;-2.534;2022-08-06T03:47:41;14.40;99.00
48988;DHT22;34799;51.440;-2.534;2022-08-06T03:50:18;14.30;99.10
48988;DHT22;34799;51.440;-2.534;2022-08-06T03:52:50;14.20;99.10
48988;DHT22;34799;51.440;-2.534;2022-08-06T03:55:23;14.20;99.30
48988;DHT22;34799;51.440;-2.534;2022-08-06T03:57:55;14.10;99.30
48988;DHT22;34799;51.440;-2.534;2022-08-06T04:00:25;14.00;99.50
48988;DHT22;34799;51.440;-2.534;2022-08-06T04:02:56;14.00;99.60
48988;DHT22;34799;51.440;-2.534;2022-08-06T04:05:27;14.00;99.80
48988;DHT22;34799;51.440;-2.534;2022-08-06T04:07:57;14.00;99.90
48988;DHT22;34799;51.440;-2.534;2022-08-06T04:10:28;14.00;99.90
48988;DHT22;34799;51.440;-2.534;2022-08-06T04:12:57;14.00;99.90
48988;DHT22;34799;51.440;-2.534;2022-08-06T04:15:24;14.00;99.90
48988;DHT22;34799;51.440;-2.534;2022-08-06T04:17:53;13.90;99.90
48988;DHT22;34799;51.440;-2.534;2022-08-06T04:20:22;13.90;99.90
48988;DHT22;34799;51.440;-2.534;2022-08-06T04:22:52;13.90;99.90
48988;DHT22;34799;51.440;-2.534;2022-08-06T04:25:22;13.90;99.90
48988;DHT22;34799;51.440;-2.534;2022-08-06T04:27:49;13.80;99.90
48988;DHT22;34799;51.440;-2.534;2022-08-06T04:30:17;13.70;99.90
48988;DHT22;34799;51.440;-2.534;2022-08-06T04:32:45;13.70;99.90
48988;DHT22;34799;51.440;-2.534;2022-08-06T04:35:13;13.60;99.90
48988;DHT22;34799;51.440;-2.534;2022-08-06T04:37:42;13.50;99.90
48988;DHT22;34799;51.440;-2.534;2022-08-06T04:40:10;13.50;99.90
48988;DHT22;34799;51.440;-2.534;2022-08-06T04:42:39;13.30;99.90
48988;DHT22;34799;51.440;-2.534;2022-08-06T04:45:08;13.80;99.90
48988;DHT22;34799;51.440;-2.534;2022-08-06T04:47:37;13.30;99.90
48988;DHT22;34799;51.440;-2.534;2022-08-06T04:50:05;13.90;99.90
48988;DHT22;34799;51.440;-2.534;2022-08-06T04:52:34;13.40;99.90
48988;DHT22;34799;51.440;-2.534;2022-08-06T04:55:03;13.40;99.90
48988;DHT22;34799;51.440;-2.534;2022-08-06T04:57:30;13.50;99.90
48988;DHT22;34799;51.440;-2.534;2022-08-06T04:59:59;13.60;99.90
48988;DHT22;34799;51.440;-2.534;2022-08-06T05:02:26;13.50;99.90
48988;DHT22;34799;51.440;-2.534;2022-08-06T05:04:54;13.50;99.90
48988;DHT22;34799;51.440;-2.534;2022-08-06T05:07:29;13.40;99.90
48988;DHT22;34799;51.440;-2.534;2022-08-06T05:09:58;13.30;99.90
48988;DHT22;34799;51.440;-2.534;2022-08-06T05:12:38;13.30;99.90
48988;DHT22;34799;51.440;-2.534;2022-08-06T05:15:22;13.30;99.90
48988;DHT22;34799;51.440;-2.534;2022-08-06T05:18:15;13.20;99.90
48988;DHT22;34799;51.440;-2.534;2022-08-06T05:20:48;13.20;99.90
48988;DHT22;34799;51.440;-2.534;2022-08-06T05:23:23;13.20;99.90
48988;DHT22;34799;51.440;-2.534;2022-08-06T05:25:51;13.30;99.90
48988;DHT22;34799;51.440;-2.534;2022-08-06T05:28:18;13.20;99.90
48988;DHT22;34799;51.440;-2.534;2022-08-06T05:30:47;13.40;99.90
48988;DHT22;34799;51.440;-2.534;2022-08-06T05:33:27;13.20;99.90
48988;DHT22;34799;51.440;-2.534;2022-08-06T05:35:55;13.20;99.90
48988;DHT22;34799;51.440;-2.534;2022-08-06T05:38:22;13.20;99.90
48988;DHT22;34799;51.440;-2.534;2022-08-06T05:40:50;13.30;99.90
48988;DHT22;34799;51.440;-2.534;2022-08-06T05:43:18;13.30;99.90
48988;DHT22;34799;51.440;-2.534;2022-08-06T05:45:47;13.30;99.90
48988;DHT22;34799;51.440;-2.534;2022-08-06T05:48:19;13.20;99.90
48988;DHT22;34799;51.440;-2.534;2022-08-06T05:50:50;13.30;99.90
48988;DHT22;34799;51.440;-2.534;2022-08-06T05:53:23;13.20;99.90
48988;DHT22;34799;51.440;-2.534;2022-08-06T05:55:58;13.30;99.90
48988;DHT22;34799;51.440;-2.534;2022-08-06T05:58:35;13.30;99.90
48988;DHT22;34799;51.440;-2.534;2022-08-06T06:01:05;13.20;99.90
48988;DHT22;34799;51.440;-2.534;2022-08-06T06:03:37;13.50;99.90
48988;DHT22;34799;51.440;-2.534;2022-08-06T06:06:05;13.30;99.90
48988;DHT22;34799;51.440;-2.534;2022-08-06T06:08:35;13.60;99.90
48988;DHT22;34799;51.440;-2.534;2022-08-06T06:11:08;13.80;99.90
48988;DHT22;34799;51.440;-2.534;2022-08-06T06:13:40;14.00;99.90
48988;DHT22;34799;51.440;-2.534;2022-08-06T06:16:18;14.10;99.90
48988;DHT22;34799;51.440;-2.534;2022-08-06T06:22:04;14.00;99.90
48988;DHT22;34799;51.440;-2.534;2022-08-06T06:24:48;14.00;99.90
48988;DHT22;34799;51.440;-2.534;2022-08-06T06:27:47;13.90;99.90
48988;DHT22;34799;51.440;-2.534;2022-08-06T06:41:14;13.80;99.90
48988;DHT22;34799;51.440;-2.534;2022-08-06T06:46:33;13.80;99.90
48988;DHT22;34799;51.440;-2.534;2022-08-06T06:49:14;13.80;99.90
48988;DHT22;34799;51.440;-2.534;2022-08-06T06:51:56;13.90;99.90
48988;DHT22;34799;51.440;-2.534;2022-08-06T06:54:32;13.90;99.90
48988;DHT22;34799;51.440;-2.534;2022-08-06T06:57:01;14.40;99.90
48988;DHT22;34799;51.440;-2.534;2022-08-06T06:59:34;14.20;99.90
48988;DHT22;34799;51.440;-2.534;2022-08-06T07:02:03;14.40;99.90
48988;DHT22;34799;51.440;-2.534;2022-08-06T07:04:35;14.50;99.90
48988;DHT22;34799;51.440;-2.534;2022-08-06T07:07:05;14.60;99.90
48988;DHT22;34799;51.440;-2.534;2022-08-06T07:09:33;14.90;99.90
48988;DHT22;34799;51.440;-2.534;2022-08-06T07:12:02;14.90;99.90
48988;DHT22;34799;51.440;-2.534;2022-08-06T07:14:34;15.00;99.90
48988;DHT22;34799;51.440;-2.534;2022-08-06T07:17:03;15.00;99.90
48988;DHT22;34799;51.440;-2.534;2022-08-06T07:19:32;14.90;99.90
48988;DHT22;34799;51.440;-2.534;2022-08-06T07:22:01;15.00;99.90
48988;DHT22;34799;51.440;-2.534;2022-08-06T07:24:31;15.10;99.90
48988;DHT22;34799;51.440;-2.534;2022-08-06T07:27:00;15.20;99.90
48988;DHT22;34799;51.440;-2.534;2022-08-06T07:29:29;15.60;99.90
48988;DHT22;34799;51.440;-2.534;2022-08-06T07:31:58;15.30;99.90
48988;DHT22;34799;51.440;-2.534;2022-08-06T07:34:26;15.30;99.90
48988;DHT22;34799;51.440;-2.534;2022-08-06T07:36:54;15.30;99.90
48988;DHT22;34799;51.440;-2.534;2022-08-06T07:39:27;15.40;99.90
48988;DHT22;34799;51.440;-2.534;2022-08-06T07:42:00;15.40;99.90
48988;DHT22;34799;51.440;-2.534;2022-08-06T07:44:29;15.60;99.90
48988;DHT22;34799;51.440;-2.534;2022-08-06T07:47:02;15.40;99.90
48988;DHT22;34799;51.440;-2.534;2022-08-06T07:49:36;15.50;99.90
48988;DHT22;34799;51.440;-2.534;2022-08-06T07:52:07;15.50;99.90
48988;DHT22;34799;51.440;-2.534;2022-08-06T07:54:37;15.50;99.90
48988;DHT22;34799;51.440;-2.534;2022-08-06T07:57:05;15.50;99.90
48988;DHT22;34799;51.440;-2.534;2022-08-06T07:59:33;15.60;99.90
48988;DHT22;34799;51.440;-2.534;2022-08-06T08:02:03;15.60;99.90
48988;DHT22;34799;51.440;-2.534;2022-08-06T08:04:31;15.60;99.90
48988;DHT22;34799;51.440;-2.534;2022-08-06T08:07:21;15.70;99.90
48988;DHT22;34799;51.440;-2.534;2022-08-06T08:09:49;15.70;99.90
48988;DHT22;34799;51.440;-2.534;2022-08-06T08:12:18;15.70;99.90
48988;DHT22;34799;51.440;-2.534;2022-08-06T08:14:48;15.80;99.90
48988;DHT22;34799;51.440;-2.534;2022-08-06T08:17:16;15.90;99.90
48988;DHT22;34799;51.440;-2.534;2022-08-06T08:19:43;16.00;99.90
48988;DHT22;34799;51.440;-2.534;2022-08-06T08:22:15;16.10;99.90
48988;DHT22;34799;51.440;-2.534;2022-08-06T08:24:44;16.20;99.70
48988;DHT22;34799;51.440;-2.534;2022-08-06T08:27:12;16.20;99.50
48988;DHT22;34799;51.440;-2.534;2022-08-06T08:29:41;16.20;99.00
48988;DHT22;34799;51.440;-2.534;2022-08-06T08:32:09;16.20;98.70
48988;DHT22;34799;51.440;-2.534;2022-08-06T08:34:36;16.50;99.10
48988;DHT22;34799;51.440;-2.534;2022-08-06T08:37:03;16.20;98.90
48988;DHT22;34799;51.440;-2.534;2022-08-06T08:39:31;16.40;98.80
48988;DHT22;34799;51.440;-2.534;2022-08-06T08:42:03;16.60;98.50
48988;DHT22;34799;51.440;-2.534;2022-08-06T08:44:34;16.70;98.10
48988;DHT22;34799;51.440;-2.534;2022-08-06T08:47:02;16.90;98.30
48988;DHT22;34799;51.440;-2.534;2022-08-06T08:49:40;16.80;98.00
48988;DHT22;34799;51.440;-2.534;2022-08-06T08:52:13;16.90;98.10
48988;DHT22;34799;51.440;-2.534;2022-08-06T08:54:46;17.00;98.10
48988;DHT22;34799;51.440;-2.534;2022-08-06T08:57:15;17.10;97.70
48988;DHT22;34799;51.440;-2.534;2022-08-06T08:59:44;17.00;97.50
48988;DHT22;34799;51.440;-2.534;2022-08-06T09:02:12;17.10;97.50
48988;DHT22;34799;51.440;-2.534;2022-08-06T09:04:41;17.40;97.50
48988;DHT22;34799;51.440;-2.534;2022-08-06T09:07:10;17.20;97.20
48988;DHT22;34799;51.440;-2.534;2022-08-06T09:09:38;17.30;97.10
48988;DHT22;34799;51.440;-2.534;2022-08-06T09:12:06;17.20;96.80
48988;DHT22;34799;51.440;-2.534;2022-08-06T09:14:37;17.10;97.30
48988;DHT22;34799;51.440;-2.534;2022-08-06T09:17:06;17.10;97.20
48988;DHT22;34799;51.440;-2.534;2022-08-06T09:19:33;17.20;97.40
48988;DHT22;34799;51.440;-2.534;2022-08-06T09:22:02;17.30;97.30
48988;DHT22;34799;51.440;-2.534;2022-08-06T09:24:30;17.30;96.90
48988;DHT22;34799;51.440;-2.534;2022-08-06T09:27:06;17.30;97.10
48988;DHT22;34799;51.440;-2.534;2022-08-06T09:29:34;17.50;96.90
48988;DHT22;34799;51.440;-2.534;2022-08-06T09:32:03;17.60;96.70
48988;DHT22;34799;51.440;-2.534;2022-08-06T09:34:38;17.70;95.80
48988;DHT22;34799;51.440;-2.534;2022-08-06T09:37:05;17.80;95.90
48988;DHT22;34799;51.440;-2.534;2022-08-06T09:39:35;17.80;96.20
48988;DHT22;34799;51.440;-2.534;2022-08-06T09:42:07;17.90;95.70
48988;DHT22;34799;51.440;-2.534;2022-08-06T09:44:34;18.00;95.50
48988;DHT22;34799;51.440;-2.534;2022-08-06T09:47:02;18.10;95.40
48988;DHT22;34799;51.440;-2.534;2022-08-06T09:49:43;18.20;95.30
48988;DHT22;34799;51.440;-2.534;2022-08-06T09:52:13;18.30;95.40
48988;DHT22;34799;51.440;-2.534;2022-08-06T09:54:41;18.20;95.00
48988;DHT22;34799;51.440;-2.534;2022-08-06T09:57:08;18.30;95.60
48988;DHT22;34799;51.440;-2.534;2022-08-06T09:59:44;18.30;95.00
48988;DHT22;34799;51.440;-2.534;2022-08-06T10:02:16;18.50;95.20
48988;DHT22;34799;51.440;-2.534;2022-08-06T10:04:44;18.60;94.70
48988;DHT22;34799;51.440;-2.534;2022-08-06T10:07:12;18.70;94.40
48988;DHT22;34799;51.440;-2.534;2022-08-06T10:09:53;18.70;94.30
48988;DHT22;34799;51.440;-2.534;2022-08-06T10:12:21;18.60;94.50
48988;DHT22;34799;51.440;-2.534;2022-08-06T10:14:49;18.60;94.50
48988;DHT22;34799;51.440;-2.534;2022-08-06T10:17:21;18.60;94.30
48988;DHT22;34799;51.440;-2.534;2022-08-06T10:20:06;18.70;94.10
48988;DHT22;34799;51.440;-2.534;2022-08-06T10:22:33;18.70;93.90
48988;DHT22;34799;51.440;-2.534;2022-08-06T10:25:03;18.70;93.60
48988;DHT22;34799;51.440;-2.534;2022-08-06T10:27:34;18.70;93.40
48988;DHT22;34799;51.440;-2.534;2022-08-06T10:30:07;18.70;93.40
48988;DHT22;34799;51.440;-2.534;2022-08-06T10:32:47;18.80;93.50
48988;DHT22;34799;51.440;-2.534;2022-08-06T10:35:17;18.90;93.20
48988;DHT22;34799;51.440;-2.534;2022-08-06T10:37:51;19.00;92.70
48988;DHT22;34799;51.440;-2.534;2022-08-06T10:40:20;19.00;92.90
48988;DHT22;34799;51.440;-2.534;2022-08-06T10:42:49;19.10;92.80
48988;DHT22;34799;51.440;-2.534;2022-08-06T10:45:18;19.10;92.60
48988;DHT22;34799;51.440;-2.534;2022-08-06T10:47:47;19.20;92.30
48988;DHT22;34799;51.440;-2.534;2022-08-06T10:50:14;19.10;92.10
48988;DHT22;34799;51.440;-2.534;2022-08-06T10:52:43;19.20;92.50
48988;DHT22;34799;51.440;-2.534;2022-08-06T10:55:10;19.20;92.50
48988;DHT22;34799;51.440;-2.534;2022-08-06T10:57:40;19.20;92.30
48988;DHT22;34799;51.440;-2.534;2022-08-06T11:00:09;19.40;92.20
48988;DHT22;34799;51.440;-2.534;2022-08-06T11:05:22;19.70;92.00
48988;DHT22;34799;51.440;-2.534;2022-08-06T11:08:28;19.70;91.80
48988;DHT22;34799;51.440;-2.534;2022-08-06T11:11:31;19.90;91.70
48988;DHT22;34799;51.440;-2.534;2022-08-06T11:14:09;19.80;91.80
48988;DHT22;34799;51.440;-2.534;2022-08-06T11:16:38;19.80;92.10
48988;DHT22;34799;51.440;-2.534;2022-08-06T11:19:10;19.80;92.00
48988;DHT22;34799;51.440;-2.534;2022-08-06T11:21:44;19.80;92.20
48988;DHT22;34799;51.440;-2.534;2022-08-06T11:24:12;19.90;92.00
48988;DHT22;34799;51.440;-2.534;2022-08-06T11:26:44;20.00;91.80
48988;DHT22;34799;51.440;-2.534;2022-08-06T11:29:13;20.00;92.20
48988;DHT22;34799;51.440;-2.534;2022-08-06T11:31:49;19.90;92.70
48988;DHT22;34799;51.440;-2.534;2022-08-06T11:34:19;20.00;92.80
48988;DHT22;34799;51.440;-2.534;2022-08-06T11:36:54;20.00;92.10
48988;DHT22;34799;51.440;-2.534;2022-08-06T11:39:25;20.00;92.20
48988;DHT22;34799;51.440;-2.534;2022-08-06T11:42:01;20.00;92.50
48988;DHT22;34799;51.440;-2.534;2022-08-06T11:44:33;20.20;92.30
48988;DHT22;34799;51.440;-2.534;2022-08-06T11:49:45;20.40;92.30
48988;DHT22;34799;51.440;-2.534;2022-08-06T11:55:04;20.70;91.80
48988;DHT22;34799;51.440;-2.534;2022-08-06T11:57:33;20.60;91.70
48988;DHT22;34799;51.440;-2.534;2022-08-06T12:00:03;20.70;92.00
48988;DHT22;34799;51.440;-2.534;2022-08-06T12:07:46;20.70;91.40
48988;DHT22;34799;51.440;-2.534;2022-08-06T12:10:16;19.70;91.50
48988;DHT22;34799;51.440;-2.534;2022-08-06T12:12:49;20.90;91.10
48988;DHT22;34799;51.440;-2.534;2022-08-06T12:17:56;20.80;91.00
48988;DHT22;34799;51.440;-2.534;2022-08-06T12:20:36;20.70;91.00
48988;DHT22;34799;51.440;-2.534;2022-08-06T12:23:10;20.60;91.00
48988;DHT22;34799;51.440;-2.534;2022-08-06T12:25:47;20.80;91.40
48988;DHT22;34799;51.440;-2.534;2022-08-06T12:28:16;20.90;90.70
48988;DHT22;34799;51.440;-2.534;2022-08-06T12:33:13;21.10;90.90
48988;DHT22;34799;51.440;-2.534;2022-08-06T12:36:02;21.10;90.90
48988;DHT22;34799;51.440;-2.534;2022-08-06T12:38:31;21.10;90.80
48988;DHT22;34799;51.440;-2.534;2022-08-06T12:41:04;21.10;90.60
48988;DHT22;34799;51.440;-2.534;2022-08-06T12:43:33;21.00;90.70
48988;DHT22;34799;51.440;-2.534;2022-08-06T12:46:07;21.00;90.70
48988;DHT22;34799;51.440;-2.534;2022-08-06T12:48:37;21.20;90.60
48988;DHT22;34799;51.440;-2.534;2022-08-06T12:51:13;21.40;90.30
48988;DHT22;34799;51.440;-2.534;2022-08-06T12:53:42;21.50;90.00
48988;DHT22;34799;51.440;-2.534;2022-08-06T12:56:16;21.60;90.30
48988;DHT22;34799;51.440;-2.534;2022-08-06T12:58:44;21.80;90.10
48988;DHT22;34799;51.440;-2.534;2022-08-06T13:01:15;22.00;89.30
48988;DHT22;34799;51.440;-2.534;2022-08-06T13:03:46;22.50;88.80
48988;DHT22;34799;51.440;-2.534;2022-08-06T13:06:18;22.00;88.10
48988;DHT22;34799;51.440;-2.534;2022-08-06T13:08:47;22.00;88.90
48988;DHT22;34799;51.440;-2.534;2022-08-06T13:11:16;22.10;87.80
48988;DHT22;34799;51.440;-2.534;2022-08-06T13:16:14;22.10;87.90
48988;DHT22;34799;51.440;-2.534;2022-08-06T13:19:02;22.20;88.20
48988;DHT22;34799;51.440;-2.534;2022-08-06T13:21:30;22.30;86.90
48988;DHT22;34799;51.440;-2.534;2022-08-06T13:23:58;22.30;86.40
48988;DHT22;34799;51.440;-2.534;2022-08-06T13:26:28;23.50;87.60
48988;DHT22;34799;51.440;-2.534;2022-08-06T13:29:15;22.60;86.80
48988;DHT22;34799;51.440;-2.534;2022-08-06T13:31:43;22.90;86.50
48988;DHT22;34799;51.440;-2.534;2022-08-06T13:34:13;23.00;86.50
48988;DHT22;34799;51.440;-2.534;2022-08-06T13:36:44;22.90;87.00
48988;DHT22;34799;51.440;-2.534;2022-08-06T13:39:19;23.00;86.40
48988;DHT22;34799;51.440;-2.534;2022-08-06T13:41:59;23.00;86.90
48988;DHT22;34799;51.440;-2.534;2022-08-06T13:44:36;23.00;86.70
48988;DHT22;34799;51.440;-2.534;2022-08-06T13:47:09;22.90;86.60
48988;DHT22;34799;51.440;-2.534;2022-08-06T13:49:39;22.80;86.80
48988;DHT22;34799;51.440;-2.534;2022-08-06T13:52:08;22.90;86.30
48988;DHT22;34799;51.440;-2.534;2022-08-06T13:54:35;22.70;86.60
48988;DHT22;34799;51.440;-2.534;2022-08-06T13:57:03;22.90;87.00
48988;DHT22;34799;51.440;-2.534;2022-08-06T13:59:31;23.00;87.90
48988;DHT22;34799;51.440;-2.534;2022-08-06T14:02:00;23.10;86.80
48988;DHT22;34799;51.440;-2.534;2022-08-06T14:04:28;23.20;86.50
48988;DHT22;34799;51.440;-2.534;2022-08-06T14:06:57;23.30;87.20
48988;DHT22;34799;51.440;-2.534;2022-08-06T14:09:27;23.30;85.80
48988;DHT22;34799;51.440;-2.534;2022-08-06T14:11:59;23.40;86.20
48988;DHT22;34799;51.440;-2.534;2022-08-06T14:14:28;23.50;86.10
48988;DHT22;34799;51.440;-2.534;2022-08-06T14:16:58;23.90;85.50
48988;DHT22;34799;51.440;-2.534;2022-08-06T14:19:27;23.90;85.70
48988;DHT22;34799;51.440;-2.534;2022-08-06T14:21:55;24.00;85.40
48988;DHT22;34799;51.440;-2.534;2022-08-06T14:24:22;24.00;85.00
48988;DHT22;34799;51.440;-2.534;2022-08-06T14:26:49;24.00;86.30
48988;DHT22;34799;51.440;-2.534;2022-08-06T14:29:16;24.10;87.00
48988;DHT22;34799;51.440;-2.534;2022-08-06T14:31:45;24.20;86.90
48988;DHT22;34799;51.440;-2.534;2022-08-06T14:34:12;24.40;86.30
48988;DHT22;34799;51.440;-2.534;2022-08-06T14:36:39;24.80;86.50
48988;DHT22;34799;51.440;-2.534;2022-08-06T14:39:06;25.00;85.10
48988;DHT22;34799;51.440;-2.534;2022-08-06T14:41:40;25.00;85.10
48988;DHT22;34799;51.440;-2.534;2022-08-06T14:44:25;25.10;85.30
48988;DHT22;34799;51.440;-2.534;2022-08-06T14:47:12;25.30;84.70
48988;DHT22;34799;51.440;-2.534;2022-08-06T14:49:40;25.50;83.90
48988;DHT22;34799;51.440;-2.534;2022-08-06T14:52:08;25.30;84.20
48988;DHT22;34799;51.440;-2.534;2022-08-06T14:54:35;25.30;84.00
48988;DHT22;34799;51.440;-2.534;2022-08-06T14:57:06;25.00;84.00
48988;DHT22;34799;51.440;-2.534;2022-08-06T14:59:34;24.90;84.40
48988;DHT22;34799;51.440;-2.534;2022-08-06T15:02:02;24.80;85.30
48988;DHT22;34799;51.440;-2.534;2022-08-06T15:04:30;25.00;84.80
48988;DHT22;34799;51.440;-2.534;2022-08-06T15:06:58;25.10;84.00
48988;DHT22;34799;51.440;-2.534;2022-08-06T15:09:26;25.10;83.80
48988;DHT22;34799;51.440;-2.534;2022-08-06T15:11:54;25.20;83.60
48988;DHT22;34799;51.440;-2.534;2022-08-06T15:14:21;25.30;83.80
48988;DHT22;34799;51.440;-2.534;2022-08-06T15:16:48;25.20;83.10
48988;DHT22;34799;51.440;-2.534;2022-08-06T15:19:16;25.40;83.00
48988;DHT22;34799;51.440;-2.534;2022-08-06T15:21:43;25.40;84.30
48988;DHT22;34799;51.440;-2.534;2022-08-06T15:24:11;25.60;85.10
48988;DHT22;34799;51.440;-2.534;2022-08-06T15:26:38;25.70;84.80
48988;DHT22;34799;51.440;-2.534;2022-08-06T15:29:05;25.50;85.00
48988;DHT22;34799;51.440;-2.534;2022-08-06T15:31:34;25.50;85.00
48988;DHT22;34799;51.440;-2.534;2022-08-06T15:34:01;25.50;85.10
48988;DHT22;34799;51.440;-2.534;2022-08-06T15:36:29;25.60;85.10
48988;DHT22;34799;51.440;-2.534;2022-08-06T15:38:58;25.40;85.20
48988;DHT22;34799;51.440;-2.534;2022-08-06T15:41:25;25.50;85.30
48988;DHT22;34799;51.440;-2.534;2022-08-06T15:43:54;25.40;84.80
48988;DHT22;34799;51.440;-2.534;2022-08-06T15:46:21;25.60;84.70
48988;DHT22;34799;51.440;-2.534;2022-08-06T15:48:48;25.60;84.20
48988;DHT22;34799;51.440;-2.534;2022-08-06T15:51:25;25.80;84.70
48988;DHT22;34799;51.440;-2.534;2022-08-06T15:53:54;26.20;84.10
48988;DHT22;34799;51.440;-2.534;2022-08-06T15:56:21;26.40;84.80
48988;DHT22;34799;51.440;-2.534;2022-08-06T15:59:08;26.50;83.40
48988;DHT22;34799;51.440;-2.534;2022-08-06T16:01:36;26.10;84.10
48988;DHT22;34799;51.440;-2.534;2022-08-06T16:04:04;26.20;84.30
48988;DHT22;34799;51.440;-2.534;2022-08-06T16:06:31;26.40;85.00
48988;DHT22;34799;51.440;-2.534;2022-08-06T16:08:59;26.50;83.90
48988;DHT22;34799;51.440;-2.534;2022-08-06T16:11:26;26.30;84.60
48988;DHT22;34799;51.440;-2.534;2022-08-06T16:13:53;26.60;83.80
48988;DHT22;34799;51.440;-2.534;2022-08-06T16:16:22;26.30;83.80
48988;DHT22;34799;51.440;-2.534;2022-08-06T16:18:49;26.30;83.70